createdAt,value
2019-03-13T00:00:54.677Z,8.00
2019-03-13T00:01:54.686Z,8.00
2019-03-13T00:02:54.665Z,8.00
2019-03-13T00:03:54.653Z,8.00
2019-03-13T00:04:54.630Z,8.00
2019-03-13T00:05:54.614Z,8.00
2019-03-13T00:06:54.607Z,8.00
2019-03-13T00:07:54.624Z,8.00
2019-03-13T00:08:54.587Z,8.00
2019-03-13T00:09:54.572Z,8.00
2019-03-13T00:10:54.564Z,8.00
2019-03-13T00:11:54.548Z,8.00
2019-03-13T00:12:54.555Z,8.00
2019-03-13T00:13:54.532Z,8.00
2019-03-13T00:14:54.530Z,8.00
2019-03-13T00:15:54.576Z,8.00
2019-03-13T00:16:54.491Z,8.00
2019-03-13T00:17:54.508Z,8.00
2019-03-13T00:18:54.477Z,8.00
2019-03-13T00:19:54.469Z,8.00
2019-03-13T00:20:54.457Z,8.00
2019-03-13T00:21:54.464Z,8.00
2019-03-13T00:22:54.449Z,4.00
2019-03-13T00:23:54.427Z,8.00
2019-03-13T00:24:56.283Z,8.00
2019-03-13T00:25:54.400Z,0.00
2019-03-13T00:26:54.378Z,4.00
2019-03-13T00:27:54.394Z,4.00
2019-03-13T00:28:54.358Z,0.00
2019-03-13T00:29:54.762Z,0.00
2019-03-13T00:30:54.340Z,0.00
2019-03-13T00:31:54.326Z,0.00
2019-03-13T00:32:54.448Z,0.00
2019-03-13T00:33:54.302Z,0.00
2019-03-13T00:34:54.293Z,0.00
2019-03-13T00:35:54.282Z,0.00
2019-03-13T00:36:54.274Z,0.00
2019-03-13T00:37:54.288Z,0.00
2019-03-13T00:38:54.256Z,0.00
2019-03-13T00:39:54.239Z,0.00
2019-03-13T00:40:54.220Z,0.00
2019-03-13T00:41:54.212Z,0.00
2019-03-13T00:42:54.225Z,0.00
2019-03-13T00:43:54.211Z,0.00
2019-03-13T00:44:54.183Z,0.00
2019-03-13T00:45:54.173Z,0.00
2019-03-13T00:46:54.162Z,0.00
2019-03-13T00:47:54.147Z,0.00
2019-03-13T00:48:54.152Z,0.00
2019-03-13T00:49:54.123Z,0.00
2019-03-13T00:50:54.113Z,0.00
2019-03-13T00:51:54.101Z,0.00
2019-03-13T00:52:54.089Z,0.00
2019-03-13T00:53:54.185Z,0.00
2019-03-13T00:54:54.074Z,0.00
2019-03-13T00:55:54.057Z,0.00
2019-03-13T00:56:54.057Z,0.00
2019-03-13T00:57:54.032Z,0.00
2019-03-13T00:58:54.034Z,0.00
2019-03-13T00:59:54.015Z,0.00
2019-03-13T01:00:53.999Z,0.00
2019-03-13T01:01:53.983Z,0.00
2019-03-13T01:02:54.053Z,0.00
2019-03-13T01:03:53.999Z,0.00
2019-03-13T01:04:53.963Z,0.00
2019-03-13T01:05:53.952Z,0.00
2019-03-13T01:06:53.931Z,0.00
2019-03-13T01:07:53.914Z,0.00
2019-03-13T01:08:53.930Z,0.00
2019-03-13T01:09:53.902Z,0.00
2019-03-13T01:10:53.901Z,0.00
2019-03-13T01:11:53.872Z,0.00
2019-03-13T01:12:53.870Z,0.00
2019-03-13T01:13:53.869Z,0.00
2019-03-13T01:14:53.843Z,0.00
2019-03-13T01:15:53.833Z,0.00
2019-03-13T01:16:53.826Z,0.00
2019-03-13T01:17:53.837Z,0.00
2019-03-13T01:18:53.802Z,0.00
2019-03-13T01:19:53.785Z,0.00
2019-03-13T01:20:53.779Z,0.00
2019-03-13T01:21:53.767Z,0.00
2019-03-13T01:22:53.779Z,0.00
2019-03-13T01:23:53.747Z,0.00
2019-03-13T01:24:53.769Z,0.00
2019-03-13T01:25:53.731Z,0.00
2019-03-13T01:26:53.705Z,0.00
2019-03-13T01:27:53.703Z,0.00
2019-03-13T01:28:53.705Z,0.00
2019-03-13T01:29:53.699Z,0.00
2019-03-13T01:30:53.665Z,0.00
2019-03-13T01:31:53.659Z,0.00
2019-03-13T01:32:53.643Z,0.00
2019-03-13T01:33:53.627Z,0.00
2019-03-13T01:34:53.902Z,0.00
2019-03-13T01:35:53.612Z,0.00
2019-03-13T01:36:53.609Z,0.00
2019-03-13T01:37:53.587Z,0.00
2019-03-13T01:38:53.577Z,0.00
2019-03-13T01:39:53.567Z,0.00
2019-03-13T01:40:53.572Z,0.00
2019-03-13T01:41:53.538Z,0.00
2019-03-13T01:42:53.530Z,0.00
2019-03-13T01:43:53.519Z,0.00
2019-03-13T01:44:53.507Z,0.00
2019-03-13T01:45:53.523Z,0.00
2019-03-13T01:46:53.483Z,0.00
2019-03-13T01:47:53.474Z,0.00
2019-03-13T01:48:53.458Z,0.00
2019-03-13T01:49:53.461Z,0.00
2019-03-13T01:50:53.456Z,0.00
2019-03-13T01:51:53.423Z,0.00
2019-03-13T01:52:53.415Z,0.00
2019-03-13T01:53:53.412Z,0.00
2019-03-13T01:54:53.395Z,0.00
2019-03-13T01:55:53.414Z,0.00
2019-03-13T01:56:53.478Z,0.00
2019-03-13T01:57:53.357Z,0.00
2019-03-13T01:58:53.389Z,0.00
2019-03-13T01:59:53.405Z,0.00
2019-03-13T02:00:53.352Z,0.00
2019-03-13T02:01:53.317Z,0.00
2019-03-13T02:02:53.303Z,0.00
2019-03-13T02:03:53.291Z,0.00
2019-03-13T02:04:53.279Z,0.00
2019-03-13T02:05:53.267Z,0.00
2019-03-13T02:06:53.275Z,0.00
2019-03-13T02:07:53.251Z,0.00
2019-03-13T02:08:53.235Z,0.00
2019-03-13T02:09:53.229Z,0.00
2019-03-13T02:10:53.225Z,0.00
2019-03-13T02:11:53.221Z,0.00
2019-03-13T02:12:53.195Z,0.00
2019-03-13T02:13:53.185Z,0.00
2019-03-13T02:14:53.167Z,0.00
2019-03-13T02:15:53.152Z,0.00
2019-03-13T02:16:53.173Z,0.00
2019-03-13T02:17:53.141Z,0.00
2019-03-13T02:18:53.127Z,0.00
2019-03-13T02:19:53.120Z,0.00
2019-03-13T02:20:53.103Z,0.00
2019-03-13T02:21:53.111Z,0.00
2019-03-13T02:22:53.081Z,0.00
2019-03-13T02:23:53.063Z,0.00
2019-03-13T02:24:54.335Z,0.00
2019-03-13T02:25:53.045Z,0.00
2019-03-13T02:26:53.055Z,0.00
2019-03-13T02:27:53.027Z,0.00
2019-03-13T02:28:53.010Z,0.00
2019-03-13T02:29:53.035Z,0.00
2019-03-13T02:30:52.986Z,0.00
2019-03-13T02:31:52.973Z,0.00
2019-03-13T02:32:52.991Z,0.00
2019-03-13T02:33:52.964Z,0.00
2019-03-13T02:34:52.947Z,0.00
2019-03-13T02:35:52.933Z,0.00
2019-03-13T02:36:52.928Z,0.00
2019-03-13T02:37:52.938Z,0.00
2019-03-13T02:38:52.903Z,0.00
2019-03-13T02:39:52.934Z,0.00
2019-03-13T02:40:52.899Z,0.00
2019-03-13T02:41:52.874Z,0.00
2019-03-13T02:42:52.876Z,0.00
2019-03-13T02:43:52.842Z,0.00
2019-03-13T02:44:52.850Z,0.00
2019-03-13T02:45:52.834Z,0.00
2019-03-13T02:46:52.808Z,0.00
2019-03-13T02:47:52.815Z,0.00
2019-03-13T02:48:52.790Z,0.00
2019-03-13T02:49:52.781Z,0.00
2019-03-13T02:50:52.781Z,0.00
2019-03-13T02:51:52.750Z,0.00
2019-03-13T02:52:52.764Z,0.00
2019-03-13T02:53:52.742Z,0.00
2019-03-13T02:54:52.718Z,0.00
2019-03-13T02:55:52.729Z,0.00
2019-03-13T02:56:52.704Z,0.00
2019-03-13T02:57:52.711Z,0.00
2019-03-13T02:58:52.676Z,0.00
2019-03-13T02:59:52.659Z,0.00
2019-03-13T03:00:52.654Z,0.00
2019-03-13T03:01:52.640Z,0.00
2019-03-13T03:02:52.855Z,0.00
2019-03-13T03:03:52.620Z,0.00
2019-03-13T03:04:52.608Z,0.00
2019-03-13T03:05:52.602Z,0.00
2019-03-13T03:06:52.598Z,0.00
2019-03-13T03:07:52.599Z,0.00
2019-03-13T03:08:52.574Z,0.00
2019-03-13T03:09:52.553Z,0.00
2019-03-13T03:10:52.555Z,0.00
2019-03-13T03:11:52.526Z,0.00
2019-03-13T03:12:52.531Z,0.00
2019-03-13T03:13:52.506Z,0.00
2019-03-13T03:14:52.497Z,0.00
2019-03-13T03:15:52.484Z,0.00
2019-03-13T03:16:52.477Z,0.00
2019-03-13T03:17:52.474Z,0.00
2019-03-13T03:18:52.459Z,0.00
2019-03-13T03:19:52.448Z,0.00
2019-03-13T03:20:52.439Z,0.00
2019-03-13T03:21:52.426Z,0.00
2019-03-13T03:22:52.440Z,0.00
2019-03-13T03:23:52.391Z,0.00
2019-03-13T03:24:52.382Z,0.00
2019-03-13T03:25:52.383Z,0.00
2019-03-13T03:26:52.364Z,0.00
2019-03-13T03:27:52.353Z,0.00
2019-03-13T03:28:52.360Z,0.00
2019-03-13T03:29:52.350Z,0.00
2019-03-13T03:30:52.391Z,0.00
2019-03-13T03:31:52.304Z,0.00
2019-03-13T03:32:52.491Z,0.00
2019-03-13T03:33:52.369Z,0.00
2019-03-13T03:34:52.278Z,0.00
2019-03-13T03:35:52.271Z,0.00
2019-03-13T03:36:52.248Z,0.00
2019-03-13T03:37:52.248Z,0.00
2019-03-13T03:38:52.253Z,0.00
2019-03-13T03:39:52.215Z,0.00
2019-03-13T03:40:52.217Z,0.00
2019-03-13T03:41:52.191Z,0.00
2019-03-13T03:42:52.233Z,0.00
2019-03-13T03:43:52.165Z,0.00
2019-03-13T03:44:52.193Z,0.00
2019-03-13T03:45:52.148Z,0.00
2019-03-13T03:46:52.136Z,0.00
2019-03-13T03:47:52.131Z,0.00
2019-03-13T03:48:52.141Z,0.00
2019-03-13T03:49:52.107Z,0.00
2019-03-13T03:50:52.111Z,0.00
2019-03-13T03:51:52.079Z,0.00
2019-03-13T03:52:52.069Z,0.00
2019-03-13T03:53:52.088Z,0.00
2019-03-13T03:54:52.052Z,0.00
2019-03-13T03:55:52.049Z,0.00
2019-03-13T03:56:52.065Z,0.00
2019-03-13T03:57:52.011Z,0.00
2019-03-13T03:58:52.007Z,0.00
2019-03-13T03:59:52.006Z,0.00
2019-03-13T04:00:51.984Z,0.00
2019-03-13T04:01:51.983Z,0.00
2019-03-13T04:02:51.967Z,0.00
2019-03-13T04:03:51.946Z,0.00
2019-03-13T04:04:52.433Z,0.00
2019-03-13T04:05:51.924Z,0.00
2019-03-13T04:06:51.909Z,0.00
2019-03-13T04:07:51.900Z,0.00
2019-03-13T04:08:51.903Z,0.00
2019-03-13T04:09:51.898Z,0.00
2019-03-13T04:10:51.875Z,0.00
2019-03-13T04:11:51.866Z,0.00
2019-03-13T04:12:51.854Z,0.00
2019-03-13T04:13:51.841Z,0.00
2019-03-13T04:14:51.849Z,0.00
2019-03-13T04:15:51.827Z,0.00
2019-03-13T04:16:51.808Z,0.00
2019-03-13T04:17:51.796Z,0.00
2019-03-13T04:18:51.787Z,0.00
2019-03-13T04:19:51.804Z,0.00
2019-03-13T04:20:51.752Z,0.00
2019-03-13T04:21:51.742Z,0.00
2019-03-13T04:22:51.876Z,0.00
2019-03-13T04:23:51.725Z,0.00
2019-03-13T04:24:51.886Z,0.00
2019-03-13T04:25:51.700Z,0.00
2019-03-13T04:26:51.714Z,0.00
2019-03-13T04:27:51.726Z,0.00
2019-03-13T04:28:51.669Z,0.00
2019-03-13T04:29:51.675Z,0.00
2019-03-13T04:30:51.642Z,0.00
2019-03-13T04:31:51.631Z,0.00
2019-03-13T04:32:51.622Z,0.00
2019-03-13T04:33:51.619Z,0.00
2019-03-13T04:34:51.619Z,0.00
2019-03-13T04:35:51.590Z,0.00
2019-03-13T04:36:51.586Z,0.00
2019-03-13T04:37:51.560Z,0.00
2019-03-13T04:38:51.555Z,0.00
2019-03-13T04:39:51.563Z,0.00
2019-03-13T04:40:51.549Z,0.00
2019-03-13T04:41:51.531Z,0.00
2019-03-13T04:42:51.510Z,0.00
2019-03-13T04:43:51.506Z,0.00
2019-03-13T04:44:51.489Z,0.00
2019-03-13T04:45:51.494Z,0.00
2019-03-13T04:46:51.473Z,0.00
2019-03-13T04:47:51.461Z,0.00
2019-03-13T04:48:51.441Z,0.00
2019-03-13T04:49:51.451Z,0.00
2019-03-13T04:50:51.436Z,0.00
2019-03-13T04:51:51.403Z,0.00
2019-03-13T04:52:51.399Z,0.00
2019-03-13T04:53:51.383Z,0.00
2019-03-13T04:54:51.378Z,0.00
2019-03-13T04:55:52.660Z,0.00
2019-03-13T04:56:51.350Z,0.00
2019-03-13T04:57:51.341Z,0.00
2019-03-13T04:58:51.333Z,0.00
2019-03-13T04:59:51.315Z,0.00
2019-03-13T05:00:51.323Z,4.00
2019-03-13T05:01:51.296Z,4.00
2019-03-13T05:02:51.293Z,0.00
2019-03-13T05:03:51.269Z,4.00
2019-03-13T05:04:51.285Z,4.00
2019-03-13T05:05:51.278Z,8.00
2019-03-13T05:06:51.237Z,4.00
2019-03-13T05:07:51.227Z,8.00
2019-03-13T05:08:51.212Z,12.00
2019-03-13T05:09:51.205Z,12.00
2019-03-13T05:10:51.211Z,12.00
2019-03-13T05:11:51.192Z,16.00
2019-03-13T05:12:51.218Z,16.00
2019-03-13T05:13:51.163Z,20.00
2019-03-13T05:14:51.150Z,20.00
2019-03-13T05:15:51.157Z,28.00
2019-03-13T05:16:51.123Z,36.00
2019-03-13T05:17:51.129Z,40.00
2019-03-13T05:18:51.111Z,44.00
2019-03-13T05:19:51.099Z,52.00
2019-03-13T05:20:51.120Z,64.00
2019-03-13T05:21:51.090Z,72.00
2019-03-13T05:22:51.061Z,80.00
2019-03-13T05:23:51.047Z,84.00
2019-03-13T05:24:51.041Z,96.00
2019-03-13T05:25:51.033Z,100.00
2019-03-13T05:26:51.041Z,116.00
2019-03-13T05:27:51.007Z,124.00
2019-03-13T05:28:51.001Z,136.00
2019-03-13T05:29:50.981Z,148.00
2019-03-13T05:30:53.072Z,160.00
2019-03-13T05:31:50.975Z,180.00
2019-03-13T05:32:50.941Z,192.00
2019-03-13T05:33:50.934Z,208.00
2019-03-13T05:34:50.924Z,220.00
2019-03-13T05:35:50.930Z,240.00
2019-03-13T05:36:50.927Z,276.00
2019-03-13T05:37:50.886Z,284.00
2019-03-13T05:38:50.884Z,300.00
2019-03-13T05:39:50.868Z,324.00
2019-03-13T05:40:50.860Z,340.00
2019-03-13T05:41:50.866Z,352.00
2019-03-13T05:42:50.832Z,360.00
2019-03-13T05:43:50.840Z,384.00
2019-03-13T05:44:50.814Z,420.00
2019-03-13T05:45:50.811Z,460.00
2019-03-13T05:46:50.819Z,512.00
2019-03-13T05:47:50.800Z,488.00
2019-03-13T05:48:50.766Z,516.00
2019-03-13T05:49:50.754Z,564.00
2019-03-13T05:50:50.749Z,620.00
2019-03-13T05:51:50.756Z,700.00
2019-03-13T05:52:50.731Z,708.00
2019-03-13T05:53:50.711Z,800.00
2019-03-13T05:54:50.697Z,860.00
2019-03-13T05:55:50.693Z,728.00
2019-03-13T05:56:50.694Z,736.00
2019-03-13T05:57:50.664Z,772.00
2019-03-13T05:58:50.653Z,780.00
2019-03-13T05:59:50.637Z,796.00
2019-03-13T06:00:50.633Z,832.00
2019-03-13T06:01:50.647Z,860.00
2019-03-13T06:02:50.611Z,868.00
2019-03-13T06:03:50.597Z,892.00
2019-03-13T06:04:50.588Z,920.00
2019-03-13T06:05:50.581Z,956.00
2019-03-13T06:06:50.577Z,1004.00
2019-03-13T06:07:50.576Z,1052.00
2019-03-13T06:08:50.543Z,1096.00
2019-03-13T06:09:50.539Z,1184.00
2019-03-13T06:10:50.519Z,1356.00
2019-03-13T06:11:50.509Z,1404.00
2019-03-13T06:12:50.513Z,1516.00
2019-03-13T06:13:50.488Z,1728.00
2019-03-13T06:14:50.472Z,1808.00
2019-03-13T06:15:50.469Z,1756.00
2019-03-13T06:16:50.452Z,1644.00
2019-03-13T06:17:50.470Z,1752.00
2019-03-13T06:18:52.800Z,1500.00
2019-03-13T06:19:50.421Z,1300.00
2019-03-13T06:20:50.407Z,1700.00
2019-03-13T06:21:50.403Z,1828.00
2019-03-13T06:22:50.423Z,1980.00
2019-03-13T06:23:50.388Z,1896.00
2019-03-13T06:24:50.368Z,1836.00
2019-03-13T06:25:50.354Z,2048.00
2019-03-13T06:26:50.341Z,1956.00
2019-03-13T06:27:50.361Z,1884.00
2019-03-13T06:28:50.328Z,1996.00
2019-03-13T06:29:50.303Z,2140.00
2019-03-13T06:30:50.313Z,2012.00
2019-03-13T06:31:50.287Z,2096.00
2019-03-13T06:32:50.286Z,2172.00
2019-03-13T06:33:50.261Z,2116.00
2019-03-13T06:34:50.265Z,2204.00
2019-03-13T06:35:50.241Z,2096.00
2019-03-13T06:36:50.225Z,2324.00
2019-03-13T06:37:50.241Z,2320.00
2019-03-13T06:38:50.208Z,2272.00
2019-03-13T06:39:50.192Z,2424.00
2019-03-13T06:40:50.215Z,2316.00
2019-03-13T06:41:50.165Z,2264.00
2019-03-13T06:42:50.172Z,1808.00
2019-03-13T06:43:50.149Z,1888.00
2019-03-13T06:44:50.142Z,2244.00
2019-03-13T06:45:50.133Z,2256.00
2019-03-13T06:46:50.129Z,2304.00
2019-03-13T06:47:50.140Z,2264.00
2019-03-13T06:48:50.111Z,2304.00
2019-03-13T06:49:50.085Z,2500.00
2019-03-13T06:50:50.081Z,2432.00
2019-03-13T06:51:50.063Z,3040.00
2019-03-13T06:52:50.051Z,2568.00
2019-03-13T06:53:50.056Z,2540.00
2019-03-13T06:54:50.022Z,2236.00
2019-03-13T06:55:50.023Z,2996.00
2019-03-13T06:56:50.025Z,3204.00
2019-03-13T06:57:50.002Z,3036.00
2019-03-13T06:58:50.011Z,3272.00
2019-03-13T06:59:49.977Z,2876.00
2019-03-13T07:00:49.968Z,3156.00
2019-03-13T07:01:49.949Z,3196.00
2019-03-13T07:02:49.945Z,3268.00
2019-03-13T07:03:49.950Z,3260.00
2019-03-13T07:04:49.915Z,3968.00
2019-03-13T07:05:49.905Z,3580.00
2019-03-13T07:06:49.894Z,3784.00
2019-03-13T07:07:49.879Z,4128.00
2019-03-13T07:08:49.911Z,3732.00
2019-03-13T07:09:49.858Z,3084.00
2019-03-13T07:10:49.848Z,2716.00
2019-03-13T07:11:49.835Z,1904.00
2019-03-13T07:12:49.865Z,2044.00
2019-03-13T07:13:49.837Z,2304.00
2019-03-13T07:14:49.806Z,3828.00
2019-03-13T07:15:49.787Z,4232.00
2019-03-13T07:16:49.788Z,4004.00
2019-03-13T07:17:49.774Z,4108.00
2019-03-13T07:18:49.778Z,3328.00
2019-03-13T07:19:49.751Z,3624.00
2019-03-13T07:20:49.735Z,3660.00
2019-03-13T07:21:49.723Z,4120.00
2019-03-13T07:22:49.709Z,5276.00
2019-03-13T07:23:49.732Z,5700.00
2019-03-13T07:24:49.705Z,5420.00
2019-03-13T07:25:49.686Z,4680.00
2019-03-13T07:26:51.404Z,4856.00
2019-03-13T07:27:49.681Z,5380.00
2019-03-13T07:28:52.401Z,5904.00
2019-03-13T07:29:49.649Z,5904.00
2019-03-13T07:30:49.619Z,5320.00
2019-03-13T07:31:49.607Z,5056.00
2019-03-13T07:32:49.596Z,4860.00
2019-03-13T07:33:49.605Z,5544.00
2019-03-13T07:34:49.577Z,5656.00
2019-03-13T07:35:49.575Z,5476.00
2019-03-13T07:36:49.548Z,5636.00
2019-03-13T07:37:49.541Z,5680.00
2019-03-13T07:38:49.551Z,4692.00
2019-03-13T07:39:49.519Z,4828.00
2019-03-13T07:40:49.505Z,5012.00
2019-03-13T07:41:49.506Z,4804.00
2019-03-13T07:42:49.486Z,4408.00
2019-03-13T07:43:49.509Z,3776.00
2019-03-13T07:44:49.464Z,3968.00
2019-03-13T07:45:49.479Z,4228.00
2019-03-13T07:46:49.450Z,4488.00
2019-03-13T07:47:49.430Z,5084.00
2019-03-13T07:48:49.431Z,4344.00
2019-03-13T07:49:49.403Z,3472.00
2019-03-13T07:50:49.403Z,4892.00
2019-03-13T07:51:49.429Z,5232.00
2019-03-13T07:52:49.377Z,5192.00
2019-03-13T07:53:49.362Z,7324.00
2019-03-13T07:54:49.362Z,7404.00
2019-03-13T07:55:49.338Z,7660.00
2019-03-13T07:56:49.348Z,7436.00
2019-03-13T07:57:49.326Z,7824.00
2019-03-13T07:58:49.327Z,8140.00
2019-03-13T07:59:49.292Z,8020.00
2019-03-13T08:00:49.363Z,7192.00
2019-03-13T08:01:49.267Z,6836.00
2019-03-13T08:02:49.263Z,6304.00
2019-03-13T08:03:49.268Z,4552.00
2019-03-13T08:04:49.237Z,3640.00
2019-03-13T08:05:49.231Z,5124.00
2019-03-13T08:06:49.220Z,7376.00
2019-03-13T08:07:49.213Z,5864.00
2019-03-13T08:08:49.227Z,5176.00
2019-03-13T08:09:49.186Z,3864.00
2019-03-13T08:10:49.179Z,2860.00
2019-03-13T08:11:49.183Z,3216.00
2019-03-13T08:12:49.168Z,4064.00
2019-03-13T08:13:49.161Z,4048.00
2019-03-13T08:14:49.130Z,3952.00
2019-03-13T08:15:49.115Z,3928.00
2019-03-13T08:16:49.102Z,3144.00
2019-03-13T08:17:49.109Z,4008.00
2019-03-13T08:18:49.083Z,5076.00
2019-03-13T08:19:49.090Z,7340.00
2019-03-13T08:20:49.057Z,6696.00
2019-03-13T08:21:49.050Z,6032.00
2019-03-13T08:22:49.039Z,5052.00
2019-03-13T08:23:49.022Z,4008.00
2019-03-13T08:24:49.031Z,4624.00
2019-03-13T08:25:49.000Z,3344.00
2019-03-13T08:26:48.993Z,5376.00
2019-03-13T08:27:48.977Z,5604.00
2019-03-13T08:28:48.976Z,6984.00
2019-03-13T08:29:48.976Z,6516.00
2019-03-13T08:30:48.943Z,4940.00
2019-03-13T08:31:48.933Z,4892.00
2019-03-13T08:32:48.925Z,5568.00
2019-03-13T08:33:48.911Z,5416.00
2019-03-13T08:34:48.915Z,4832.00
2019-03-13T08:35:48.899Z,5360.00
2019-03-13T08:36:48.875Z,7880.00
2019-03-13T08:37:48.867Z,5424.00
2019-03-13T08:38:48.852Z,5356.00
2019-03-13T08:39:48.859Z,6384.00
2019-03-13T08:40:48.833Z,6612.00
2019-03-13T08:41:48.819Z,6952.00
2019-03-13T08:42:48.878Z,7104.00
2019-03-13T08:43:48.801Z,6148.00
2019-03-13T08:44:48.811Z,5504.00
2019-03-13T08:45:48.779Z,7136.00
2019-03-13T08:46:48.769Z,6588.00
2019-03-13T08:47:48.753Z,9656.00
2019-03-13T08:48:48.751Z,6208.00
2019-03-13T08:49:48.747Z,8324.00
2019-03-13T08:50:48.728Z,6328.00
2019-03-13T08:51:48.709Z,6668.00
2019-03-13T08:52:48.703Z,7604.00
2019-03-13T08:53:48.683Z,7880.00
2019-03-13T08:54:48.697Z,10596.00
2019-03-13T08:55:48.664Z,9080.00
2019-03-13T08:56:48.656Z,7420.00
2019-03-13T08:57:48.639Z,6196.00
2019-03-13T08:58:48.635Z,5176.00
2019-03-13T08:59:48.649Z,4812.00
2019-03-13T09:00:48.609Z,5784.00
2019-03-13T09:01:48.597Z,5900.00
2019-03-13T09:02:48.588Z,6472.00
2019-03-13T09:03:48.581Z,5364.00
2019-03-13T09:04:48.583Z,4740.00
2019-03-13T09:05:48.552Z,4724.00
2019-03-13T09:06:48.547Z,4580.00
2019-03-13T09:07:48.549Z,7216.00
2019-03-13T09:08:48.517Z,6388.00
2019-03-13T09:09:48.602Z,5476.00
2019-03-13T09:10:48.502Z,5200.00
2019-03-13T09:11:48.485Z,4860.00
2019-03-13T09:12:48.508Z,4320.00
2019-03-13T09:13:48.463Z,4864.00
2019-03-13T09:14:48.479Z,4500.00
2019-03-13T09:15:48.437Z,4316.00
2019-03-13T09:16:48.431Z,5204.00
2019-03-13T09:17:48.416Z,5448.00
2019-03-13T09:18:48.410Z,6216.00
2019-03-13T09:19:48.395Z,8392.00
2019-03-13T09:20:48.412Z,10404.00
2019-03-13T09:21:48.370Z,8752.00
2019-03-13T09:22:48.357Z,9580.00
2019-03-13T09:23:48.360Z,9124.00
2019-03-13T09:24:48.341Z,10104.00
2019-03-13T09:25:48.341Z,10652.00
2019-03-13T09:26:48.325Z,8836.00
2019-03-13T09:27:48.302Z,9324.00
2019-03-13T09:28:48.299Z,13584.00
2019-03-13T09:29:48.285Z,13512.00
2019-03-13T09:30:48.288Z,13196.00
2019-03-13T09:31:48.384Z,12116.00
2019-03-13T09:32:48.243Z,12792.00
2019-03-13T09:33:48.237Z,11664.00
2019-03-13T09:34:48.230Z,11616.00
2019-03-13T09:35:48.235Z,6592.00
2019-03-13T09:36:48.217Z,6836.00
2019-03-13T09:37:48.193Z,12136.00
2019-03-13T09:38:48.185Z,12476.00
2019-03-13T09:39:48.167Z,10828.00
2019-03-13T09:40:48.196Z,15596.00
2019-03-13T09:41:48.146Z,16020.00
2019-03-13T09:42:48.147Z,15260.00
2019-03-13T09:43:48.131Z,15632.00
2019-03-13T09:44:48.118Z,11732.00
2019-03-13T09:45:48.115Z,13092.00
2019-03-13T09:46:48.089Z,14280.00
2019-03-13T09:47:48.076Z,10420.00
2019-03-13T09:48:48.064Z,12992.00
2019-03-13T09:49:48.055Z,14212.00
2019-03-13T09:50:48.061Z,11024.00
2019-03-13T09:51:48.032Z,12544.00
2019-03-13T09:52:48.019Z,15700.00
2019-03-13T09:53:48.006Z,17856.00
2019-03-13T09:54:48.000Z,12912.00
2019-03-13T09:55:48.010Z,15048.00
2019-03-13T09:56:47.976Z,12888.00
2019-03-13T09:57:47.976Z,13424.00
2019-03-13T09:58:47.957Z,11388.00
2019-03-13T09:59:47.952Z,11296.00
2019-03-13T10:00:47.954Z,11216.00
2019-03-13T10:01:47.920Z,12816.00
2019-03-13T10:02:47.909Z,12120.00
2019-03-13T10:03:47.896Z,9560.00
2019-03-13T10:04:47.887Z,10828.00
2019-03-13T10:05:47.899Z,13260.00
2019-03-13T10:06:47.868Z,14704.00
2019-03-13T10:07:47.856Z,9912.00
2019-03-13T10:08:47.847Z,9356.00
2019-03-13T10:09:47.830Z,13864.00
2019-03-13T10:10:47.974Z,14832.00
2019-03-13T10:11:47.802Z,14132.00
2019-03-13T10:12:47.792Z,9888.00
2019-03-13T10:13:47.784Z,8060.00
2019-03-13T10:14:47.773Z,10688.00
2019-03-13T10:15:47.779Z,12544.00
2019-03-13T10:16:47.755Z,9080.00
2019-03-13T10:17:47.740Z,10228.00
2019-03-13T10:18:47.724Z,6004.00
2019-03-13T10:19:47.740Z,8932.00
2019-03-13T10:20:47.747Z,12776.00
2019-03-13T10:21:47.732Z,30304.00
2019-03-13T10:22:47.687Z,15024.00
2019-03-13T10:23:47.680Z,34112.00
2019-03-13T10:24:47.660Z,42304.00
2019-03-13T10:25:49.206Z,17856.00
2019-03-13T10:26:47.643Z,20032.00
2019-03-13T10:27:47.653Z,13720.00
2019-03-13T10:28:47.608Z,15296.00
2019-03-13T10:29:47.600Z,13244.00
2019-03-13T10:30:47.609Z,12388.00
2019-03-13T10:31:47.581Z,12236.00
2019-03-13T10:32:47.596Z,11508.00
2019-03-13T10:33:47.557Z,12200.00
2019-03-13T10:34:47.548Z,11040.00
2019-03-13T10:35:47.541Z,11816.00
2019-03-13T10:36:50.362Z,12928.00
2019-03-13T10:37:47.513Z,14396.00
2019-03-13T10:38:47.499Z,11388.00
2019-03-13T10:39:47.490Z,9116.00
2019-03-13T10:40:47.482Z,13124.00
2019-03-13T10:41:47.494Z,11600.00
2019-03-13T10:42:47.453Z,13532.00
2019-03-13T10:43:47.443Z,15160.00
2019-03-13T10:44:47.433Z,20896.00
2019-03-13T10:45:47.427Z,17984.00
2019-03-13T10:46:47.431Z,20096.00
2019-03-13T10:47:47.415Z,42944.00
2019-03-13T10:48:47.387Z,24416.00
2019-03-13T10:49:47.371Z,92512.00
2019-03-13T10:50:47.373Z,24160.00
2019-03-13T10:51:47.435Z,16192.00
2019-03-13T10:52:47.346Z,79904.00
2019-03-13T10:53:47.335Z,59808.00
2019-03-13T10:54:47.317Z,43072.00
2019-03-13T10:55:47.307Z,23552.00
2019-03-13T10:56:47.318Z,93760.00
2019-03-13T10:57:47.283Z,112000.00
2019-03-13T10:58:47.274Z,16692.00
2019-03-13T10:59:47.263Z,112416.00
2019-03-13T11:00:47.272Z,112704.00
2019-03-13T11:01:47.269Z,110752.00
2019-03-13T11:02:47.239Z,117120.00
2019-03-13T11:03:47.217Z,116992.00
2019-03-13T11:04:47.227Z,126048.00
2019-03-13T11:05:47.194Z,121792.00
2019-03-13T11:06:54.940Z,55648.00
2019-03-13T11:07:48.178Z,118464.00
2019-03-13T11:08:47.161Z,19552.00
2019-03-13T11:09:47.168Z,121888.00
2019-03-13T11:10:47.139Z,120352.00
2019-03-13T11:11:47.133Z,117888.00
2019-03-13T11:12:48.593Z,122272.00
2019-03-13T11:13:47.104Z,47872.00
2019-03-13T11:14:47.093Z,118656.00
2019-03-13T11:15:47.086Z,112032.00
2019-03-13T11:16:47.069Z,27072.00
2019-03-13T11:17:47.079Z,95296.00
2019-03-13T11:18:47.052Z,52832.00
2019-03-13T11:19:47.044Z,72704.00
2019-03-13T11:20:47.028Z,13336.00
2019-03-13T11:21:47.018Z,37952.00
2019-03-13T11:22:47.033Z,90688.00
2019-03-13T11:23:46.989Z,102976.00
2019-03-13T11:24:46.983Z,105824.00
2019-03-13T11:25:46.971Z,97760.00
2019-03-13T11:26:46.967Z,97696.00
2019-03-13T11:27:46.972Z,73344.00
2019-03-13T11:28:46.935Z,67232.00
2019-03-13T11:29:46.923Z,41344.00
2019-03-13T11:30:46.916Z,13384.00
2019-03-13T11:31:46.897Z,18304.00
2019-03-13T11:32:46.910Z,22464.00
2019-03-13T11:33:46.886Z,19168.00
2019-03-13T11:34:46.878Z,18592.00
2019-03-13T11:35:46.855Z,16928.00
2019-03-13T11:36:46.853Z,18048.00
2019-03-13T11:37:46.852Z,23744.00
2019-03-13T11:38:46.827Z,13680.00
2019-03-13T11:39:46.816Z,11672.00
2019-03-13T11:40:46.802Z,9848.00
2019-03-13T11:41:46.793Z,7920.00
2019-03-13T11:42:46.798Z,7700.00
2019-03-13T11:43:46.770Z,8040.00
2019-03-13T11:44:46.775Z,9136.00
2019-03-13T11:45:46.743Z,10544.00
2019-03-13T11:46:46.731Z,13252.00
2019-03-13T11:47:46.745Z,13944.00
2019-03-13T11:48:46.710Z,10104.00
2019-03-13T11:49:46.702Z,9960.00
2019-03-13T11:50:46.707Z,8756.00
2019-03-13T11:51:46.682Z,8428.00
2019-03-13T11:52:46.708Z,7940.00
2019-03-13T11:53:46.661Z,6800.00
2019-03-13T11:54:46.641Z,6720.00
2019-03-13T11:55:46.631Z,6144.00
2019-03-13T11:56:46.623Z,7400.00
2019-03-13T11:57:46.626Z,7276.00
2019-03-13T11:58:46.602Z,7428.00
2019-03-13T11:59:46.603Z,6552.00
2019-03-13T12:00:46.578Z,4316.00
2019-03-13T12:01:46.564Z,4832.00
2019-03-13T12:02:46.582Z,6648.00
2019-03-13T12:03:46.539Z,5276.00
2019-03-13T12:04:46.538Z,4068.00
2019-03-13T12:05:46.523Z,4916.00
2019-03-13T12:06:46.505Z,5136.00
2019-03-13T12:07:46.494Z,5652.00
2019-03-13T12:08:46.501Z,6488.00
2019-03-13T12:09:46.471Z,5492.00
2019-03-13T12:10:46.468Z,4376.00
2019-03-13T12:11:46.451Z,4404.00
2019-03-13T12:12:46.438Z,4932.00
2019-03-13T12:13:46.452Z,4592.00
2019-03-13T12:14:46.413Z,4904.00
2019-03-13T12:15:46.405Z,4448.00
2019-03-13T12:16:46.391Z,3708.00
2019-03-13T12:17:46.385Z,3136.00
2019-03-13T12:18:46.388Z,3076.00
2019-03-13T12:19:46.364Z,3004.00
2019-03-13T12:20:46.352Z,3540.00
2019-03-13T12:21:46.343Z,3352.00
2019-03-13T12:22:46.328Z,3408.00
2019-03-13T12:23:46.335Z,4120.00
2019-03-13T12:24:46.307Z,4480.00
2019-03-13T12:25:46.295Z,4708.00
2019-03-13T12:26:46.284Z,4156.00
2019-03-13T12:27:46.275Z,4176.00
2019-03-13T12:28:46.279Z,3672.00
2019-03-13T12:29:46.249Z,3712.00
2019-03-13T12:30:46.236Z,3764.00
2019-03-13T12:31:46.223Z,4044.00